Terminal Aerodrome Forecast
Issued by NWS

Home | Current Version | Previous Version | Text Only | Print | Product List | Glossary On
Versions: 1 2 3 4 5 6 7 8 9 10 11 12 13 14
000
FTUS46 KOTX 301734
TAFSFF
TAF
KSFF 301734Z 3018/3118 VRB03KT P6SM SCT150 BKN200
     FM302000 20005KT P6SM BKN120 OVC200
     FM310000 24005KT P6SM VCSH BKN100 OVC150
      TEMPO 3100/3103 22010G20KT -SHRA
     FM310400 VRB03KT P6SM BKN150
     FM310700 20005KT P6SM SKC=

USA.gov is the U.S. government's official web portal to all federal, state and local government web resources and services.